Time;durP1;ratioP1;P1;durP2;ratioP2;P2;SDS_P1;SDS_P2;PMS_P1;PMS_P2;Temp;Humidity;BMP_temperature;BMP_pressure;BME280_temperature;BME280_humidity;BME280_pressure;Samples;Min_cycle;Max_cycle;Signal;HPM_P1;HPM_P2
2022/11/21 00:00:59;;;;;;;29.27;16.65;;;8.30;99.90;;;;;;4933327;29;20508;-80
2022/11/21 00:03:26;;;;;;;30.13;17.52;;;8.30;99.90;;;;;;4946228;29;20047;-79
2022/11/21 00:05:53;;;;;;;27.45;16.65;;;8.40;99.90;;;;;;4950040;29;20058;-79
2022/11/21 00:08:21;;;;;;;30.30;17.67;;;8.20;99.90;;;;;;4947870;29;20086;-79
2022/11/21 00:10:48;;;;;;;34.70;19.05;;;8.20;99.90;;;;;;4946383;29;20043;-79
2022/11/21 00:13:17;;;;;;;32.88;17.98;;;8.20;99.90;;;;;;4949612;29;20452;-80
2022/11/21 00:15:45;;;;;;;31.10;18.27;;;8.20;99.90;;;;;;4932750;29;20049;-80
2022/11/21 00:18:13;;;;;;;34.22;19.48;;;8.20;99.90;;;;;;4944531;29;20519;-79
2022/11/21 00:20:40;;;;;;;33.10;18.65;;;8.10;99.90;;;;;;4948903;29;20047;-80
2022/11/21 00:23:07;;;;;;;36.42;19.48;;;8.10;99.90;;;;;;4950513;28;20071;-80
2022/11/21 00:25:34;;;;;;;34.40;20.08;;;8.10;99.90;;;;;;4950240;29;20065;-80
2022/11/21 00:28:01;;;;;;;35.45;19.42;;;8.10;99.90;;;;;;4951745;29;20062;-79
2022/11/21 00:30:28;;;;;;;36.97;19.17;;;8.10;99.90;;;;;;4952583;29;20035;-80
2022/11/21 00:32:58;;;;;;;36.65;19.90;;;8.10;99.90;;;;;;4951961;29;20042;-79
2022/11/21 00:35:25;;;;;;;30.23;18.23;;;8.10;99.90;;;;;;4952933;29;20531;-79
2022/11/21 00:37:52;;;;;;;29.60;17.98;;;8.00;99.90;;;;;;4953995;29;20047;-79
2022/11/21 00:40:19;;;;;;;33.28;19.15;;;8.00;99.90;;;;;;4949967;29;20516;-79
2022/11/21 00:42:46;;;;;;;35.35;18.85;;;8.00;99.90;;;;;;4950214;28;20047;-79
2022/11/21 00:45:13;;;;;;;33.13;19.40;;;8.00;99.90;;;;;;4936497;29;20488;-80
2022/11/21 00:47:40;;;;;;;35.42;19.73;;;7.90;99.90;;;;;;4952847;29;20058;-79
2022/11/21 00:50:10;;;;;;;34.80;20.00;;;7.90;99.90;;;;;;4948393;29;20052;-79
2022/11/21 00:52:36;;;;;;;33.97;18.50;;;7.90;99.90;;;;;;4951997;29;20495;-79
2022/11/21 00:55:04;;;;;;;36.00;20.17;;;7.90;99.90;;;;;;4936252;29;20047;-79
2022/11/21 00:57:31;;;;;;;34.40;18.90;;;7.80;99.90;;;;;;4949276;29;20047;-79
2022/11/21 00:59:57;;;;;;;36.30;19.67;;;7.80;99.90;;;;;;4951968;28;20061;-79
2022/11/21 01:02:24;;;;;;;33.78;18.80;;;7.80;99.90;;;;;;4952201;29;20046;-79
2022/11/21 01:04:51;;;;;;;39.22;20.77;;;7.80;99.90;;;;;;4952074;29;20124;-79
2022/11/21 01:07:20;;;;;;;35.20;19.70;;;7.80;99.90;;;;;;4952755;29;20584;-80
2022/11/21 01:09:47;;;;;;;36.53;20.45;;;7.80;99.90;;;;;;4952646;29;20047;-79
2022/11/21 01:12:13;;;;;;;35.95;20.50;;;7.80;99.90;;;;;;4948947;29;20039;-80
2022/11/21 01:14:40;;;;;;;38.97;20.42;;;7.80;99.90;;;;;;4939489;29;20522;-80
2022/11/21 01:17:07;;;;;;;40.33;21.67;;;7.70;99.90;;;;;;4940328;29;20138;-80
2022/11/21 01:19:34;;;;;;;37.38;20.08;;;7.80;99.90;;;;;;4956802;28;20419;-80
2022/11/21 01:22:01;;;;;;;41.00;21.50;;;7.70;99.90;;;;;;4951283;29;20039;-80
2022/11/21 01:24:30;;;;;;;40.15;21.05;;;7.70;99.90;;;;;;4952910;29;20047;-80
2022/11/21 01:26:56;;;;;;;39.10;21.60;;;7.70;99.90;;;;;;4921244;29;20504;-80
2022/11/21 01:29:24;;;;;;;38.75;20.42;;;7.70;99.90;;;;;;4945394;29;20048;-80
2022/11/21 01:31:50;;;;;;;41.10;21.60;;;7.70;99.90;;;;;;4951139;29;20162;-80
2022/11/21 01:34:17;;;;;;;43.00;22.55;;;7.70;99.90;;;;;;4945931;28;20768;-80
2022/11/21 01:36:45;;;;;;;42.45;22.05;;;7.70;99.90;;;;;;4947806;28;20074;-80
2022/11/21 01:39:12;;;;;;;39.78;20.20;;;7.70;99.90;;;;;;4952035;29;20436;-80
2022/11/21 01:41:41;;;;;;;42.60;22.33;;;7.70;99.90;;;;;;4933721;29;20115;-80
2022/11/21 01:44:16;;;;;;;41.10;21.80;;;7.70;99.90;;;;;;4943825;29;20043;-80
2022/11/21 01:46:43;;;;;;;40.42;21.63;;;7.70;99.90;;;;;;4951553;29;20284;-80
2022/11/21 01:49:12;;;;;;;42.60;21.90;;;7.70;99.90;;;;;;4952290;29;20047;-80
2022/11/21 01:51:42;;;;;;;44.15;21.73;;;7.70;99.90;;;;;;4940839;29;20050;-80
2022/11/21 01:54:12;;;;;;;41.50;21.70;;;7.70;99.90;;;;;;4929650;29;20055;-80
2022/11/21 01:56:43;;;;;;;44.97;22.55;;;7.70;99.90;;;;;;4934212;29;20739;-80
2022/11/21 01:59:14;;;;;;;43.03;22.53;;;7.60;99.90;;;;;;4951675;29;20123;-80
2022/11/21 02:01:41;;;;;;;40.10;20.95;;;7.60;99.90;;;;;;4951336;29;20126;-80
2022/11/21 02:04:08;;;;;;;42.15;22.73;;;7.60;99.90;;;;;;4950885;29;20039;-80
2022/11/21 02:06:36;;;;;;;42.22;21.83;;;7.60;99.90;;;;;;4951409;28;20047;-80
2022/11/21 02:09:05;;;;;;;39.45;21.27;;;7.60;99.90;;;;;;4948537;29;20054;-80
2022/11/21 02:11:36;;;;;;;38.95;21.38;;;7.70;99.90;;;;;;4955347;28;20049;-80
2022/11/21 02:14:05;;;;;;;38.95;21.73;;;7.60;99.90;;;;;;4934041;29;20062;-80
2022/11/21 02:16:32;;;;;;;40.00;20.33;;;7.60;99.90;;;;;;4947035;29;20094;-80
2022/11/21 02:18:59;;;;;;;41.33;20.77;;;7.60;99.90;;;;;;4949443;29;20047;-80
2022/11/21 02:21:35;;;;;;;40.58;21.52;;;7.70;99.90;;;;;;4951771;29;20142;-80
2022/11/21 02:24:05;;;;;;;42.47;21.77;;;7.70;99.90;;;;;;4951486;29;20043;-80
2022/11/21 02:26:33;;;;;;;42.38;21.73;;;7.70;99.90;;;;;;4942662;28;20082;-80
2022/11/21 02:29:00;;;;;;;37.58;20.80;;;7.70;99.90;;;;;;4951082;29;20131;-80
2022/11/21 02:31:27;;;;;;;41.08;22.23;;;7.70;99.90;;;;;;4950934;29;20039;-80
2022/11/21 02:33:54;;;;;;;39.60;21.60;;;7.70;99.90;;;;;;4934963;29;20075;-80
2022/11/21 02:36:33;;;;;;;37.08;20.30;;;7.70;99.90;;;;;;4939420;29;20039;-80
2022/11/21 02:39:00;;;;;;;37.20;20.60;;;7.60;99.90;;;;;;4949997;29;20142;-80
2022/11/21 02:41:28;;;;;;;37.17;20.63;;;7.60;99.90;;;;;;4950847;29;20511;-80
2022/11/21 02:43:59;;;;;;;39.05;21.52;;;7.60;99.90;;;;;;4950258;29;20040;-80
2022/11/21 02:46:27;;;;;;;38.95;20.83;;;7.70;99.90;;;;;;4950985;28;20146;-80
2022/11/21 02:48:54;;;;;;;38.22;19.23;;;7.70;99.90;;;;;;4948050;29;20094;-80
2022/11/21 02:51:21;;;;;;;37.95;21.20;;;7.70;99.90;;;;;;4939608;29;20051;-80
2022/11/21 02:53:48;;;;;;;37.58;20.02;;;7.70;99.90;;;;;;4951144;29;20043;-80
2022/11/21 02:56:15;;;;;;;42.17;23.35;;;7.70;99.90;;;;;;4932671;29;20219;-80
2022/11/21 02:58:42;;;;;;;42.20;21.92;;;7.70;99.90;;;;;;4949951;29;20039;-80
2022/11/21 03:01:10;;;;;;;40.28;21.35;;;7.70;99.90;;;;;;4948320;28;20415;-80
2022/11/21 03:03:37;;;;;;;35.13;20.08;;;7.70;99.90;;;;;;4951019;29;20039;-80
2022/11/21 03:06:04;;;;;;;34.15;18.70;;;7.70;99.90;;;;;;4950585;29;20050;-80
2022/11/21 03:08:31;;;;;;;33.63;18.75;;;7.70;99.90;;;;;;4943683;29;20126;-80
2022/11/21 03:10:58;;;;;;;33.40;18.67;;;7.60;99.90;;;;;;4933770;29;20050;-80
2022/11/21 03:13:25;;;;;;;33.10;19.23;;;7.70;99.90;;;;;;4916454;29;20134;-80
2022/11/21 03:15:54;;;;;;;35.65;20.02;;;7.60;99.90;;;;;;4939851;29;20054;-80
2022/11/21 03:18:22;;;;;;;37.08;19.38;;;7.60;99.90;;;;;;4950309;29;20575;-80
2022/11/21 03:20:49;;;;;;;33.20;19.17;;;7.60;99.90;;;;;;4950492;29;20043;-80
2022/11/21 03:23:16;;;;;;;34.15;18.58;;;7.60;99.90;;;;;;4946367;28;20078;-80
2022/11/21 03:25:43;;;;;;;35.38;19.73;;;7.60;99.90;;;;;;4950164;29;20050;-80
2022/11/21 03:28:10;;;;;;;34.80;19.70;;;7.60;99.90;;;;;;4950047;29;20051;-80
2022/11/21 03:30:37;;;;;;;31.60;17.98;;;7.60;99.90;;;;;;4950422;29;20078;-80
2022/11/21 03:33:03;;;;;;;33.15;18.75;;;7.60;99.90;;;;;;4949225;29;20046;-80
2022/11/21 03:35:32;;;;;;;33.72;18.52;;;7.60;99.90;;;;;;4950494;29;20050;-80
2022/11/21 03:37:59;;;;;;;33.53;18.25;;;7.60;99.90;;;;;;4940092;29;20110;-80
2022/11/21 03:40:26;;;;;;;35.20;19.10;;;7.60;99.90;;;;;;4947733;29;20061;-80
2022/11/21 03:42:52;;;;;;;33.47;19.30;;;7.60;99.90;;;;;;4947765;28;20104;-80
2022/11/21 03:45:19;;;;;;;34.80;19.77;;;7.60;99.90;;;;;;4950188;29;20047;-80
2022/11/21 03:47:46;;;;;;;34.70;19.60;;;7.60;99.90;;;;;;4945390;29;20065;-80
2022/11/21 03:50:17;;;;;;;34.90;19.83;;;7.60;99.90;;;;;;4950137;29;20159;-80
2022/11/21 03:52:45;;;;;;;35.95;20.08;;;7.60;99.90;;;;;;4949939;29;20051;-80
2022/11/21 03:55:12;;;;;;;35.65;19.52;;;7.50;99.90;;;;;;4950817;29;20130;-80
2022/11/21 03:57:39;;;;;;;33.17;19.33;;;7.50;99.90;;;;;;4939200;28;20051;-80
2022/11/21 04:00:07;;;;;;;36.97;19.92;;;7.50;99.90;;;;;;4973597;22;20521;-74
2022/11/21 04:02:34;;;;;;;35.38;19.23;;;7.50;99.90;;;;;;4970118;28;20304;-74
2022/11/21 04:05:01;;;;;;;36.58;19.80;;;7.50;99.90;;;;;;4973473;28;20081;-74
2022/11/21 04:07:28;;;;;;;35.63;20.27;;;7.50;99.90;;;;;;4973629;28;20126;-76
2022/11/21 04:09:57;;;;;;;34.60;18.75;;;7.50;99.90;;;;;;4966557;28;20043;-76
2022/11/21 04:12:24;;;;;;;38.88;20.90;;;7.50;99.90;;;;;;4955096;28;20066;-76
2022/11/21 04:14:50;;;;;;;35.13;20.27;;;7.60;99.90;;;;;;4963247;28;20491;-76
2022/11/21 04:17:17;;;;;;;34.53;18.63;;;7.50;99.90;;;;;;4958345;28;20054;-76
2022/11/21 04:19:44;;;;;;;36.10;18.83;;;7.50;99.90;;;;;;4964306;28;20043;-75
2022/11/21 04:22:11;;;;;;;34.80;19.50;;;7.50;99.90;;;;;;4953022;29;20055;-76
2022/11/21 04:24:38;;;;;;;38.28;20.27;;;7.60;99.90;;;;;;4957181;28;20043;-75
2022/11/21 04:27:06;;;;;;;33.10;18.25;;;7.60;99.90;;;;;;4950316;28;20055;-76
2022/11/21 04:29:33;;;;;;;35.08;17.83;;;7.50;99.90;;;;;;4948231;28;20040;-76
2022/11/21 04:32:00;;;;;;;37.63;18.88;;;7.50;99.90;;;;;;4945923;28;20052;-76
2022/11/21 04:34:27;;;;;;;35.67;18.35;;;7.50;99.90;;;;;;4959081;28;20039;-76
2022/11/21 04:36:54;;;;;;;41.50;18.63;;;7.60;99.90;;;;;;4973373;28;20574;-76
2022/11/21 04:39:21;;;;;;;44.50;19.98;;;7.60;99.90;;;;;;4958043;28;20079;-76
2022/11/21 04:41:48;;;;;;;43.55;19.95;;;7.60;99.90;;;;;;4957292;28;20129;-76
2022/11/21 04:44:16;;;;;;;37.95;18.35;;;7.60;99.90;;;;;;4958295;28;20047;-76
2022/11/21 04:46:43;;;;;;;37.20;17.92;;;7.60;99.90;;;;;;4962386;28;20411;-76
2022/11/21 04:49:10;;;;;;;37.55;18.17;;;7.60;99.90;;;;;;4957261;28;20054;-76
2022/11/21 04:51:37;;;;;;;40.10;17.45;;;7.60;99.90;;;;;;4949871;28;20043;-76
2022/11/21 04:54:04;;;;;;;34.55;17.13;;;7.60;99.90;;;;;;4953427;29;20043;-76
2022/11/21 04:56:30;;;;;;;37.97;17.42;;;7.60;99.90;;;;;;4966175;28;20126;-76
2022/11/21 04:58:57;;;;;;;34.10;16.08;;;7.60;99.90;;;;;;4969654;28;20819;-76
2022/11/21 05:01:26;;;;;;;37.88;16.52;;;7.60;99.90;;;;;;4949075;29;20061;-76
2022/11/21 05:03:53;;;;;;;33.10;16.98;;;7.60;99.90;;;;;;4943811;28;20044;-76
2022/11/21 05:06:19;;;;;;;34.15;16.65;;;7.60;99.90;;;;;;4959413;28;20043;-76
2022/11/21 05:08:46;;;;;;;34.45;16.45;;;7.60;99.90;;;;;;4957632;28;20049;-76
2022/11/21 05:13:58;;;;;;;39.17;16.85;;;7.60;99.90;;;;;;4949575;29;20046;-75
2022/11/21 05:16:26;;;;;;;36.58;16.30;;;7.60;99.90;;;;;;4954353;28;20043;-76
2022/11/21 05:18:53;;;;;;;45.15;18.45;;;7.70;99.90;;;;;;4948045;28;20065;-76
2022/11/21 05:21:20;;;;;;;40.83;17.65;;;7.70;99.90;;;;;;4933916;29;20046;-76
2022/11/21 05:23:46;;;;;;;43.72;19.30;;;7.60;99.90;;;;;;4952554;28;20047;-76
2022/11/21 05:26:13;;;;;;;45.75;19.17;;;7.60;99.90;;;;;;4954563;28;20059;-76
2022/11/21 05:28:40;;;;;;;45.88;19.33;;;7.60;99.90;;;;;;4972404;28;20081;-76
2022/11/21 05:31:07;;;;;;;49.50;19.58;;;7.60;99.90;;;;;;4952140;28;20039;-76
2022/11/21 05:33:35;;;;;;;45.80;19.25;;;7.60;99.90;;;;;;4948116;28;20045;-76
2022/11/21 05:36:02;;;;;;;54.20;21.10;;;7.60;99.90;;;;;;4948752;28;20047;-76
2022/11/21 05:38:29;;;;;;;59.15;22.48;;;7.60;99.90;;;;;;4952539;29;20098;-76
2022/11/21 05:40:56;;;;;;;58.92;22.40;;;7.60;99.90;;;;;;4959713;28;20090;-76
2022/11/21 05:46:08;;;;;;;53.00;21.17;;;7.60;99.90;;;;;;4952753;29;20122;-76
2022/11/21 05:48:36;;;;;;;67.88;25.38;;;7.60;99.90;;;;;;4968335;28;20471;-75
2022/11/21 05:51:04;;;;;;;63.63;23.75;;;7.60;99.90;;;;;;4964511;28;20050;-76
2022/11/21 05:53:31;;;;;;;71.80;24.73;;;7.60;99.90;;;;;;4946905;28;20035;-77
2022/11/21 05:56:02;;;;;;;66.82;25.05;;;7.60;99.90;;;;;;4967677;28;20053;-75
2022/11/21 05:58:28;;;;;;;;;;;7.60;99.90;;;;;;4959919;28;20057;-76
2022/11/21 06:00:56;;;;;;;65.07;25.33;;;7.60;99.90;;;;;;4947854;28;19923;-75
2022/11/21 06:03:26;;;;;;;66.22;25.17;;;7.60;99.90;;;;;;4956011;28;20470;-75
2022/11/21 06:06:02;;;;;;;83.18;27.98;;;7.60;99.90;;;;;;4952365;29;20035;-75
2022/11/21 06:08:31;;;;;;;72.32;27.30;;;7.60;99.90;;;;;;4958117;28;20047;-74
2022/11/21 06:10:58;;;;;;;76.72;27.75;;;7.70;99.90;;;;;;4945292;28;20057;-75
2022/11/21 06:13:25;;;;;;;80.40;27.17;;;7.70;99.90;;;;;;4944006;29;20067;-75
2022/11/21 06:15:55;;;;;;;77.50;27.52;;;7.70;99.90;;;;;;4956757;28;20135;-74
2022/11/21 06:18:22;;;;;;;76.15;27.70;;;7.70;99.90;;;;;;4961520;28;20102;-75
2022/11/21 06:20:49;;;;;;;66.97;25.98;;;7.70;99.90;;;;;;4969009;28;20079;-75
2022/11/21 06:23:18;;;;;;;77.72;29.30;;;7.70;99.90;;;;;;4949218;28;20042;-75
2022/11/21 06:25:45;;;;;;;67.88;27.75;;;7.70;99.90;;;;;;4940956;28;20075;-74
2022/11/21 06:28:12;;;;;;;72.22;27.02;;;7.70;99.90;;;;;;4948105;28;20052;-74
2022/11/21 06:30:39;;;;;;;72.75;26.23;;;7.70;99.90;;;;;;4957387;28;20047;-75
2022/11/21 06:33:06;;;;;;;67.90;25.90;;;7.70;99.90;;;;;;4947938;28;20043;-75
2022/11/21 06:35:36;;;;;;;66.57;24.75;;;7.70;99.90;;;;;;4951945;28;20053;-75
2022/11/21 06:38:03;;;;;;;61.42;24.02;;;7.70;99.90;;;;;;4915285;29;20102;-74
2022/11/21 06:40:31;;;;;;;56.08;23.58;;;7.70;99.90;;;;;;4945487;28;20039;-74
2022/11/21 06:42:58;;;;;;;67.85;25.95;;;7.70;99.90;;;;;;4949381;28;20385;-74
2022/11/21 06:45:25;;;;;;;62.08;25.15;;;7.70;99.90;;;;;;4951581;29;20051;-75
2022/11/21 06:47:52;;;;;;;67.25;24.92;;;7.70;99.90;;;;;;4948064;28;20516;-74
2022/11/21 06:50:19;;;;;;;60.45;25.20;;;7.70;99.90;;;;;;4952759;28;20047;-74
2022/11/21 06:52:46;;;;;;;65.60;25.08;;;7.70;99.90;;;;;;4953101;28;20728;-75
2022/11/21 06:55:13;;;;;;;59.47;24.25;;;7.70;99.90;;;;;;4953339;28;20520;-75
2022/11/21 06:57:42;;;;;;;58.80;24.67;;;7.70;99.90;;;;;;4963303;28;20424;-75
2022/11/21 07:00:10;;;;;;;67.05;25.10;;;7.70;99.90;;;;;;4952902;28;20058;-76
2022/11/21 07:02:36;;;;;;;62.33;24.30;;;7.70;99.90;;;;;;4949343;28;20039;-77
2022/11/21 07:05:04;;;;;;;62.90;25.42;;;7.70;99.90;;;;;;4944950;28;20512;-77
2022/11/21 07:07:31;;;;;;;55.42;23.85;;;7.80;99.90;;;;;;4949061;28;20040;-77
2022/11/21 07:09:58;;;;;;;56.13;23.95;;;7.70;99.90;;;;;;4947791;28;20078;-77
2022/11/21 07:15:11;;;;;;;57.47;23.17;;;7.70;99.90;;;;;;4954149;28;20427;-77
2022/11/21 07:17:38;;;;;;;52.63;21.83;;;7.70;99.90;;;;;;4948750;29;20035;-78
2022/11/21 07:20:06;;;;;;;57.88;23.65;;;7.70;99.90;;;;;;4930920;28;20452;-79
2022/11/21 07:22:33;;;;;;;52.88;22.52;;;7.70;99.90;;;;;;4942198;28;20046;-79
2022/11/21 07:25:00;;;;;;;52.75;22.38;;;7.90;99.90;;;;;;4950984;29;20061;-79
2022/11/21 07:27:27;;;;;;;54.15;23.98;;;7.80;99.90;;;;;;4962652;28;20074;-79
2022/11/21 07:29:56;;;;;;;51.83;22.42;;;7.70;99.90;;;;;;4933306;29;20061;-79
2022/11/21 07:32:25;;;;;;;62.25;22.80;;;7.80;99.90;;;;;;4948951;28;20106;-79
2022/11/21 07:34:52;;;;;;;55.30;23.45;;;7.80;99.90;;;;;;4947319;28;20747;-79
2022/11/21 07:37:18;;;;;;;53.90;23.05;;;7.80;99.90;;;;;;4956208;28;20047;-79
2022/11/21 07:39:45;;;;;;;59.15;22.92;;;7.80;99.90;;;;;;4948025;29;20133;-79
2022/11/21 07:42:12;;;;;;;55.67;22.73;;;7.80;99.90;;;;;;4946423;28;20050;-79
2022/11/21 07:44:41;;;;;;;50.55;21.80;;;7.80;99.90;;;;;;4933224;29;20046;-79
2022/11/21 07:47:08;;;;;;;52.80;23.08;;;7.80;99.90;;;;;;4950875;28;20066;-79
2022/11/21 07:49:36;;;;;;;54.85;23.30;;;7.80;99.90;;;;;;4951270;28;20050;-79
2022/11/21 07:52:04;;;;;;;55.70;22.77;;;7.80;99.90;;;;;;4950068;28;20051;-78
2022/11/21 07:54:30;;;;;;;55.50;22.27;;;7.80;99.90;;;;;;4946402;28;20039;-77
2022/11/21 07:56:57;;;;;;;54.65;22.60;;;7.90;99.90;;;;;;4933144;28;20043;-77
2022/11/21 07:59:24;;;;;;;50.17;21.70;;;7.90;99.90;;;;;;4947899;28;20043;-77
2022/11/21 08:01:52;;;;;;;51.38;21.80;;;7.90;99.90;;;;;;4950050;28;20415;-77
2022/11/21 08:04:19;;;;;;;58.35;24.70;;;7.90;99.90;;;;;;4950501;29;20114;-78
2022/11/21 08:06:47;;;;;;;60.60;23.58;;;7.90;99.90;;;;;;4952724;28;20051;-78
2022/11/21 08:09:14;;;;;;;58.33;24.02;;;7.90;99.90;;;;;;4947269;28;20047;-78
2022/11/21 08:11:41;;;;;;;61.83;22.58;;;8.00;99.90;;;;;;4951276;28;20142;-78
2022/11/21 08:14:08;;;;;;;69.68;25.13;;;8.00;99.90;;;;;;4948514;29;20123;-78
2022/11/21 08:16:35;;;;;;;58.90;22.00;;;8.00;99.90;;;;;;4934157;28;20053;-79
2022/11/21 08:19:02;;;;;;;66.22;25.05;;;8.00;99.90;;;;;;4949114;29;20071;-77
2022/11/21 08:21:30;;;;;;;62.95;24.42;;;8.00;99.90;;;;;;4950853;28;20094;-77
2022/11/21 08:23:58;;;;;;;61.78;23.90;;;8.00;99.90;;;;;;4942258;29;20039;-77
2022/11/21 08:26:25;;;;;;;63.08;24.63;;;8.00;99.90;;;;;;4935856;28;20047;-77
2022/11/21 08:28:52;;;;;;;65.63;25.77;;;8.10;99.90;;;;;;4947302;28;20043;-77
2022/11/21 08:31:19;;;;;;;65.85;25.90;;;8.10;99.90;;;;;;4944864;28;20062;-77
2022/11/21 08:33:46;;;;;;;73.47;26.63;;;8.10;99.90;;;;;;4955226;28;20071;-77
2022/11/21 08:36:13;;;;;;;68.55;27.30;;;8.10;99.90;;;;;;4949845;28;20081;-77
2022/11/21 08:38:40;;;;;;;71.93;27.88;;;8.10;99.90;;;;;;4944642;28;20131;-77
2022/11/21 08:43:53;;;;;;;72.53;27.52;;;8.10;99.90;;;;;;4956830;28;20045;-78
2022/11/21 08:46:19;;;;;;;74.32;28.52;;;8.40;99.90;;;;;;4950042;28;20054;-79
2022/11/21 08:48:46;;;;;;;80.10;28.15;;;8.20;99.90;;;;;;4953026;28;20564;-77
2022/11/21 08:51:13;;;;;;;70.05;27.83;;;8.20;99.90;;;;;;4950993;28;20126;-78
2022/11/21 08:53:40;;;;;;;82.53;29.42;;;8.30;99.90;;;;;;4944456;28;20118;-77
2022/11/21 08:56:09;;;;;;;78.40;27.80;;;8.30;99.90;;;;;;4954376;28;20039;-78
2022/11/21 08:58:36;;;;;;;79.28;29.10;;;8.30;99.90;;;;;;4952733;28;20075;-77
2022/11/21 09:01:03;;;;;;;78.68;29.35;;;8.30;99.90;;;;;;4959972;28;20070;-77
2022/11/21 09:03:31;;;;;;;72.85;28.50;;;8.30;99.90;;;;;;4945467;28;20047;-77
2022/11/21 09:05:58;;;;;;;69.40;28.27;;;8.40;99.90;;;;;;4961838;28;20444;-77
2022/11/21 09:08:25;;;;;;;72.68;28.35;;;8.40;99.90;;;;;;4951312;28;20039;-77
2022/11/21 09:10:52;;;;;;;64.65;27.58;;;8.40;99.90;;;;;;4944177;29;20044;-77
2022/11/21 09:13:26;;;;;;;69.68;26.95;;;8.40;99.90;;;;;;4941013;28;20096;-78
2022/11/21 09:18:42;;;;;;;63.05;25.40;;;8.50;99.90;;;;;;4948709;28;20035;-77
2022/11/21 09:21:09;;;;;;;74.55;27.75;;;8.50;99.90;;;;;;4952464;28;20042;-77
2022/11/21 09:23:36;;;;;;;63.95;26.13;;;8.50;99.90;;;;;;4951184;29;20040;-77
2022/11/21 09:26:03;;;;;;;81.22;28.95;;;8.50;99.90;;;;;;4952468;28;20122;-77
2022/11/21 09:28:31;;;;;;;68.50;25.98;;;8.50;99.90;;;;;;4951823;29;20043;-77
2022/11/21 09:30:58;;;;;;;71.13;28.33;;;8.50;99.90;;;;;;4953957;28;20126;-77
2022/11/21 09:33:25;;;;;;;62.85;26.33;;;8.60;99.90;;;;;;4934771;29;20165;-77
2022/11/21 09:35:52;;;;;;;72.00;26.55;;;8.60;99.90;;;;;;4953589;28;20053;-77
2022/11/21 09:38:19;;;;;;;62.42;26.05;;;8.60;99.90;;;;;;4955040;28;20095;-77
2022/11/21 09:40:48;;;;;;;66.53;26.65;;;8.60;99.90;;;;;;4952260;28;20464;-78
2022/11/21 09:43:37;;;;;;;64.47;27.33;;;8.60;99.90;;;;;;4946528;28;20062;-77
2022/11/21 09:46:09;;;;;;;67.90;27.20;;;8.60;99.90;;;;;;4951336;28;20500;-77
2022/11/21 09:48:43;;;;;;;80.13;29.58;;;8.60;99.90;;;;;;4951144;28;20047;-77
2022/11/21 09:51:12;;;;;;;66.70;26.98;;;8.70;99.90;;;;;;4952797;28;20047;-77
2022/11/21 09:53:54;;;;;;;66.03;25.95;;;8.70;99.90;;;;;;4950824;28;20053;-77
2022/11/21 09:56:23;;;;;;;58.45;24.73;;;8.70;99.90;;;;;;4942152;28;20137;-77
2022/11/21 09:58:58;;;;;;;55.83;25.05;;;8.70;99.90;;;;;;4960840;28;20051;-78
2022/11/21 10:01:27;;;;;;;62.22;25.85;;;8.70;99.90;;;;;;4968952;23;20061;-74
2022/11/21 10:03:54;;;;;;;54.20;24.73;;;8.80;99.90;;;;;;4957950;28;20448;-75
2022/11/21 10:06:24;;;;;;;46.75;22.73;;;8.80;99.90;;;;;;4976872;28;20138;-75
2022/11/21 10:08:57;;;;;;;48.83;23.25;;;8.80;99.90;;;;;;4981081;28;20121;-77
2022/11/21 10:11:33;;;;;;;53.85;23.40;;;8.80;99.90;;;;;;4970047;28;20148;-75
2022/11/21 10:14:10;;;;;;;51.05;23.02;;;8.90;99.90;;;;;;4948088;28;20476;-75
2022/11/21 10:16:43;;;;;;;49.42;23.15;;;8.90;99.90;;;;;;4960621;28;20508;-75
2022/11/21 10:19:34;;;;;;;40.78;20.67;;;8.90;99.90;;;;;;4945946;28;20086;-75
2022/11/21 10:22:26;;;;;;;45.10;21.08;;;9.00;99.90;;;;;;4947760;28;20047;-74
2022/11/21 10:24:56;;;;;;;39.45;19.48;;;9.00;99.90;;;;;;4960366;28;20051;-75
2022/11/21 10:27:30;;;;;;;43.17;21.35;;;9.00;99.90;;;;;;4962980;28;20047;-75
2022/11/21 10:30:01;;;;;;;45.08;21.83;;;9.10;99.90;;;;;;4956858;28;20057;-75
2022/11/21 10:32:31;;;;;;;38.70;19.65;;;9.10;99.90;;;;;;4943726;28;20051;-75
2022/11/21 10:35:03;;;;;;;39.13;20.30;;;9.10;99.90;;;;;;4951959;29;20134;-74
2022/11/21 10:37:35;;;;;;;42.60;22.20;;;9.10;99.90;;;;;;4946670;28;20609;-78
2022/11/21 10:40:10;;;;;;;44.03;22.08;;;9.20;99.90;;;;;;4952336;28;20043;-81
2022/11/21 10:42:47;;;;;;;34.13;18.90;;;9.20;99.90;;;;;;4950842;28;20054;-78
2022/11/21 10:45:18;;;;;;;37.58;18.75;;;9.20;99.90;;;;;;4933926;28;20042;-77
2022/11/21 10:47:47;;;;;;;33.92;17.23;;;9.20;99.90;;;;;;4932721;29;20052;-77
2022/11/21 10:50:35;;;;;;;33.47;16.73;;;9.30;99.90;;;;;;4947375;28;20043;-77
2022/11/21 10:54:31;;;;;;;29.88;16.60;;;9.30;99.90;;;;;;4928698;28;20059;-77
2022/11/21 10:56:00;;;;;;;29.38;15.68;;;9.30;99.90;;;;;;4954337;28;20047;-77
2022/11/21 10:58:42;;;;;;;28.63;16.52;;;9.30;99.90;;;;;;4956319;28;20053;-77
2022/11/21 11:01:22;;;;;;;28.88;16.40;;;9.40;99.90;;;;;;4951055;29;20130;-77
2022/11/21 11:04:15;;;;;;;28.48;15.98;;;9.40;99.90;;;;;;4953684;28;20070;-77
2022/11/21 11:06:44;;;;;;;29.45;16.38;;;9.40;99.90;;;;;;4949013;28;20464;-77
2022/11/21 11:09:22;;;;;;;31.20;15.88;;;9.40;99.90;;;;;;4961264;28;20074;-77
2022/11/21 11:11:49;;;;;;;30.05;16.33;;;9.40;99.90;;;;;;4950110;29;20062;-77
2022/11/21 11:14:28;;;;;;;33.15;15.88;;;9.40;99.90;;;;;;4949725;28;20042;-77
2022/11/21 11:16:57;;;;;;;25.25;14.70;;;9.40;99.90;;;;;;4954464;28;20070;-76
2022/11/21 11:19:27;;;;;;;31.05;16.20;;;9.40;99.90;;;;;;4942893;29;20134;-77
2022/11/21 11:21:55;;;;;;;25.65;15.10;;;9.40;99.90;;;;;;4950005;28;20070;-77
2022/11/21 11:24:25;;;;;;;22.75;14.27;;;9.40;99.90;;;;;;4961636;28;20113;-77
2022/11/21 11:26:57;;;;;;;25.92;15.52;;;9.50;99.90;;;;;;4958812;28;20050;-77
2022/11/21 11:29:25;;;;;;;25.42;15.25;;;9.50;99.90;;;;;;4966460;28;20114;-77
2022/11/21 11:31:56;;;;;;;25.58;15.77;;;9.50;99.90;;;;;;4951895;28;20043;-77
2022/11/21 11:34:24;;;;;;;26.88;15.55;;;9.50;99.90;;;;;;4959286;28;20090;-77
2022/11/21 11:36:56;;;;;;;27.38;15.13;;;9.50;99.90;;;;;;4953777;28;20538;-77
2022/11/21 11:39:36;;;;;;;27.85;15.63;;;9.50;99.90;;;;;;4965709;28;20130;-77
2022/11/21 11:48:05;;;;;;;28.60;14.95;;;9.50;99.90;;;;;;4961086;28;20040;-77
2022/11/21 11:50:34;;;;;;;43.17;16.70;;;9.60;99.90;;;;;;4950626;28;20130;-77
2022/11/21 11:53:05;;;;;;;32.58;16.05;;;9.60;99.90;;;;;;4952628;28;20077;-77
2022/11/21 11:55:36;;;;;;;28.83;14.85;;;9.60;99.90;;;;;;4950443;29;20047;-77
2022/11/21 11:58:07;;;;;;;25.33;14.77;;;9.70;99.90;;;;;;4942989;28;20480;-77
2022/11/21 12:00:40;;;;;;;26.67;14.18;;;9.70;99.90;;;;;;4950043;28;20503;-79
2022/11/21 12:03:14;;;;;;;20.40;13.32;;;9.70;99.90;;;;;;4953182;28;20047;-77
2022/11/21 12:05:53;;;;;;;22.70;12.35;;;9.70;99.90;;;;;;4948595;28;20039;-77
2022/11/21 12:08:25;;;;;;;22.15;12.68;;;9.70;99.90;;;;;;4954922;28;20078;-78
2022/11/21 12:13:39;;;;;;;21.85;13.23;;;9.80;99.90;;;;;;4950745;29;20068;-77
2022/11/21 12:16:09;;;;;;;23.10;13.82;;;9.70;99.90;;;;;;4949812;28;20044;-77
2022/11/21 12:18:42;;;;;;;25.10;13.02;;;9.80;99.90;;;;;;4960761;28;20067;-77
2022/11/21 12:21:13;;;;;;;26.33;13.85;;;9.70;99.90;;;;;;4954353;29;20129;-78
2022/11/21 12:23:45;;;;;;;23.90;13.70;;;9.80;99.90;;;;;;4951376;29;20150;-77
2022/11/21 12:26:30;;;;;;;23.50;13.23;;;9.80;99.90;;;;;;4948220;28;20035;-77
2022/11/21 12:29:07;;;;;;;22.40;13.23;;;9.80;99.90;;;;;;4953951;28;20067;-77
2022/11/21 12:31:42;;;;;;;23.02;13.55;;;9.80;99.90;;;;;;4964800;28;20085;-77
2022/11/21 12:34:19;;;;;;;24.17;13.88;;;9.80;99.90;;;;;;4966916;28;20122;-77
2022/11/21 12:36:50;;;;;;;22.67;13.20;;;9.80;99.90;;;;;;4964573;28;20134;-77
2022/11/21 12:39:34;;;;;;;25.42;13.85;;;9.80;99.90;;;;;;4969759;28;20093;-77
2022/11/21 12:45:03;;;;;;;26.05;15.20;;;9.90;99.90;;;;;;4951693;28;20522;-78
2022/11/21 12:56:19;;;;;;;21.63;13.82;;;9.90;99.90;;;;;;4962885;28;20054;-78
2022/11/21 12:58:49;;;;;;;27.27;13.23;;;9.90;99.90;;;;;;4960483;28;20101;-77
2022/11/21 13:01:23;;;;;;;23.70;12.70;;;10.00;99.90;;;;;;4955462;28;20137;-76
2022/11/21 13:03:58;;;;;;;23.83;12.68;;;10.00;99.90;;;;;;4952870;28;20121;-76
2022/11/21 13:06:28;;;;;;;24.85;13.38;;;10.00;99.90;;;;;;4954743;28;20136;-77
2022/11/21 13:08:58;;;;;;;21.02;11.55;;;10.00;99.90;;;;;;4963663;28;20129;-76
2022/11/21 13:11:59;;;;;;;22.80;11.43;;;10.00;99.90;;;;;;4959972;28;20039;-77
2022/11/21 13:14:31;;;;;;;21.50;10.77;;;10.00;99.90;;;;;;4952303;28;20051;-76
2022/11/21 13:17:06;;;;;;;22.27;10.07;;;10.00;99.90;;;;;;4951722;28;20126;-76
2022/11/21 13:19:42;;;;;;;18.52;10.38;;;10.00;99.90;;;;;;4954114;28;20139;-76